Time;durP1;ratioP1;P1;durP2;ratioP2;P2;SDS_P1;SDS_P2;PMS_P1;PMS_P2;Temp;Humidity;BMP_temperature;BMP_pressure;BME280_temperature;BME280_humidity;BME280_pressure;Samples;Min_cycle;Max_cycle;Signal;HPM_P1;HPM_P2
2022/05/12 00:01:26;;;;;;;6.25;4.10;;;;;;;19.25;48.50;96165.75;5068039;28;20048;-77
2022/05/12 00:03:52;;;;;;;5.63;3.40;;;;;;;19.17;48.84;96177.91;5068778;28;20049;-77
2022/05/12 00:06:19;;;;;;;9.75;3.92;;;;;;;19.13;49.07;96175.09;5067474;28;20059;-78
2022/05/12 00:08:45;;;;;;;4.93;3.60;;;;;;;19.10;49.10;96177.81;5068996;28;20045;-76
2022/05/12 00:11:13;;;;;;;6.00;3.70;;;;;;;19.06;49.24;96169.50;5067383;28;20040;-77
2022/05/12 00:13:40;;;;;;;5.47;3.50;;;;;;;19.13;49.12;96169.56;5068360;28;20041;-77
2022/05/12 00:16:06;;;;;;;4.40;3.20;;;;;;;19.17;49.35;96175.13;5054476;28;20539;-77
2022/05/12 00:18:33;;;;;;;5.47;3.60;;;;;;;19.24;49.00;96162.19;5050213;28;20051;-78
2022/05/12 00:21:00;;;;;;;7.53;3.70;;;;;;;19.28;48.87;96171.31;5058995;28;20059;-77
2022/05/12 00:23:28;;;;;;;6.00;3.65;;;;;;;19.30;48.77;96162.63;5057863;28;20044;-76
2022/05/12 00:25:56;;;;;;;6.55;3.85;;;;;;;19.36;48.83;96166.63;5049537;28;20419;-77
2022/05/12 00:28:26;;;;;;;4.68;3.50;;;;;;;19.33;48.74;96175.69;5051564;28;20045;-77
2022/05/12 00:30:56;;;;;;;5.72;3.90;;;;;;;19.36;48.87;96166.63;5061180;28;20057;-77
2022/05/12 00:33:25;;;;;;;11.10;3.83;;;;;;;19.40;48.82;96167.47;5063036;28;20049;-77
2022/05/12 00:35:52;;;;;;;7.72;4.13;;;;;;;19.46;48.89;96171.47;5051762;28;20052;-77
2022/05/12 00:38:19;;;;;;;8.80;3.90;;;;;;;19.46;49.19;96165.94;5047549;28;20045;-77
2022/05/12 00:40:47;;;;;;;7.47;3.78;;;;;;;19.50;49.18;96168.75;5047908;28;20049;-77
2022/05/12 00:43:38;;;;;;;6.60;3.60;;;;;;;19.49;48.42;96162.44;5047873;28;20056;-77
2022/05/12 00:46:06;;;;;;;5.15;3.30;;;;;;;19.44;48.74;96168.31;5061673;28;20781;-77
2022/05/12 00:48:32;;;;;;;7.10;3.67;;;;;;;19.37;48.42;96165.50;5067308;28;20041;-77
2022/05/12 00:51:01;;;;;;;5.70;3.70;;;;;;;19.44;48.81;96165.56;5066610;28;20052;-77
2022/05/12 00:53:28;;;;;;;4.05;3.22;;;;;;;19.50;48.97;96168.75;5067049;28;20611;-77
2022/05/12 00:55:55;;;;;;;5.10;3.85;;;;;;;19.39;48.43;96171.41;5066690;28;20059;-77
2022/05/12 00:58:22;;;;;;;5.85;3.40;;;;;;;19.44;48.32;96168.31;5066636;28;20055;-76
2022/05/12 01:00:50;;;;;;;6.93;3.83;;;;;;;19.41;48.48;96174.59;5066650;28;20625;-76
2022/05/12 01:03:21;;;;;;;6.82;3.53;;;;;;;19.41;48.65;96169.06;5066268;28;20079;-77
2022/05/12 01:05:48;;;;;;;5.88;3.70;;;;;;;19.45;48.35;96169.91;5066062;28;20044;-78
2022/05/12 01:08:17;;;;;;;7.03;3.55;;;;;;;19.40;48.35;96174.97;5065931;28;20392;-77
2022/05/12 01:10:48;;;;;;;6.07;3.53;;;;;;;19.35;48.48;96176.09;5066883;28;20419;-77
2022/05/12 01:13:16;;;;;;;5.72;3.65;;;;;;;19.33;48.68;96167.41;5065898;28;20104;-77
2022/05/12 01:15:52;;;;;;;8.23;3.60;;;;;;;19.25;48.94;96166.53;5066359;28;20174;-78
2022/05/12 01:18:20;;;;;;;8.25;3.75;;;;;;;19.20;49.21;96168.84;5066069;28;20102;-77
2022/05/12 01:20:47;;;;;;;6.18;3.78;;;;;;;19.13;49.33;96174.31;5066671;28;20048;-76
2022/05/12 01:23:24;;;;;;;6.40;3.80;;;;;;;19.15;49.67;96180.22;5066335;28;20059;-77
2022/05/12 01:25:55;;;;;;;6.93;3.72;;;;;;;19.13;49.60;96174.31;5066230;28;20059;-78
2022/05/12 01:28:21;;;;;;;6.97;3.72;;;;;;;19.06;49.66;96182.50;5066370;28;20543;-77
2022/05/12 01:30:48;;;;;;;5.90;3.80;;;;;;;19.04;50.00;96178.13;5065412;28;20048;-77
2022/05/12 01:33:14;;;;;;;7.55;3.50;;;;;;;18.93;50.05;96176.44;5066244;28;20048;-78
2022/05/12 01:35:41;;;;;;;5.80;3.72;;;;;;;19.03;50.06;96181.28;5065788;28;20057;-76
2022/05/12 01:38:08;;;;;;;8.50;4.18;;;;;;;19.05;49.79;96184.44;5066012;28;20045;-76
2022/05/12 01:40:35;;;;;;;6.93;3.92;;;;;;;18.97;49.96;96178.06;5065724;28;20053;-77
2022/05/12 01:43:02;;;;;;;9.77;3.70;;;;;;;18.91;50.26;96185.09;5065186;28;20051;-77
2022/05/12 01:45:29;;;;;;;6.88;3.95;;;;;;;18.87;50.23;96184.25;5057350;28;20048;-78
2022/05/12 01:47:55;;;;;;;8.18;3.70;;;;;;;18.85;50.19;96186.59;5045815;28;20048;-77
2022/05/12 01:50:22;;;;;;;6.97;3.80;;;;;;;18.81;50.41;96185.75;5045845;28;20059;-77
2022/05/12 01:52:50;;;;;;;6.05;4.13;;;;;;;18.80;50.49;96178.66;5045716;28;20053;-76
2022/05/12 01:55:19;;;;;;;5.85;3.85;;;;;;;18.89;50.47;96181.91;5046269;28;20110;-77
2022/05/12 01:57:47;;;;;;;7.50;3.55;;;;;;;18.82;50.09;96179.06;5045310;28;20045;-77
2022/05/12 02:00:19;;;;;;;7.63;3.80;;;;;;;18.87;49.85;96181.50;5045716;28;20678;-76
2022/05/12 02:02:45;;;;;;;8.68;3.60;;;;;;;18.86;49.40;96187.41;5046077;28;20064;-77
2022/05/12 02:05:12;;;;;;;5.68;3.25;;;;;;;18.93;49.20;96181.94;5045704;28;20526;-77
2022/05/12 02:07:40;;;;;;;9.85;3.70;;;;;;;19.07;49.67;96192.38;5046316;28;20051;-77
2022/05/12 02:10:09;;;;;;;6.85;3.47;;;;;;;19.15;49.62;96188.50;5046824;28;20065;-77
2022/05/12 02:12:35;;;;;;;5.60;3.70;;;;;;;19.22;48.65;96191.38;5048782;28;20049;-77
2022/05/12 02:15:05;;;;;;;5.35;3.63;;;;;;;19.18;48.43;96182.25;5048135;28;20052;-77
2022/05/12 02:17:32;;;;;;;6.88;3.70;;;;;;;19.21;48.52;96187.00;5047533;28;20052;-79
2022/05/12 02:19:58;;;;;;;4.60;3.42;;;;;;;19.26;48.35;96192.16;5046094;28;20056;-76
2022/05/12 02:22:25;;;;;;;5.55;3.50;;;;;;;19.16;48.31;96190.09;5049330;28;20049;-77
2022/05/12 02:24:52;;;;;;;6.65;3.47;;;;;;;19.15;48.66;96196.78;5059678;28;20053;-77
2022/05/12 02:27:20;;;;;;;6.78;3.63;;;;;;;19.01;48.81;96192.72;5057966;28;20045;-78
2022/05/12 02:29:46;;;;;;;6.25;3.45;;;;;;;19.06;48.93;96190.78;5049932;28;20064;-78
2022/05/12 02:32:14;;;;;;;6.20;3.78;;;;;;;19.06;48.98;96199.06;5044060;28;20135;-77
2022/05/12 02:34:41;;;;;;;6.47;3.55;;;;;;;18.99;48.97;96192.28;5046274;28;20055;-77
2022/05/12 02:37:08;;;;;;;4.85;3.70;;;;;;;18.93;49.25;96193.78;5045097;28;20687;-79
2022/05/12 02:39:36;;;;;;;8.52;3.90;;;;;;;18.89;49.76;96192.94;5045708;28;20520;-77
2022/05/12 02:42:04;;;;;;;3.97;3.58;;;;;;;18.90;49.79;96189.03;5044412;28;20055;-77
2022/05/12 02:44:31;;;;;;;5.25;4.00;;;;;;;18.82;50.11;96190.09;5047102;28;20076;-77
2022/05/12 02:46:57;;;;;;;6.95;4.03;;;;;;;18.85;50.16;96191.31;5044990;28;20061;-77
2022/05/12 02:49:26;;;;;;;5.15;3.67;;;;;;;18.78;50.47;96200.28;5045575;28;20076;-78
2022/05/12 02:51:53;;;;;;;4.07;3.30;;;;;;;18.65;50.81;96205.22;5045502;28;20057;-78
2022/05/12 02:54:20;;;;;;;7.57;3.85;;;;;;;18.67;51.07;96202.09;5045067;28;20056;-77
2022/05/12 02:56:47;;;;;;;6.43;4.10;;;;;;;18.60;50.79;96202.78;5045629;28;20087;-76
2022/05/12 02:59:14;;;;;;;8.65;3.90;;;;;;;18.47;51.36;96204.97;5044191;28;20530;-77
2022/05/12 03:01:41;;;;;;;7.05;3.95;;;;;;;18.48;51.12;96201.06;5045147;28;20056;-78
2022/05/12 03:04:08;;;;;;;7.20;3.80;;;;;;;18.56;51.13;96212.97;5044469;28;20049;-77
2022/05/12 03:06:37;;;;;;;4.68;3.90;;;;;;;18.57;50.91;96213.78;5045996;28;20589;-76
2022/05/12 03:09:05;;;;;;;6.15;3.85;;;;;;;18.61;50.99;96209.09;5044272;28;20053;-77
2022/05/12 03:11:32;;;;;;;9.75;3.78;;;;;;;18.51;50.92;96211.34;5045258;28;20144;-77
2022/05/12 03:13:59;;;;;;;6.35;3.70;;;;;;;18.43;51.45;96219.91;5045678;28;20049;-76
2022/05/12 03:16:26;;;;;;;5.35;3.53;;;;;;;18.33;51.68;96224.09;5062290;28;20126;-77
2022/05/12 03:18:54;;;;;;;6.88;3.90;;;;;;;18.22;52.05;96225.88;5065318;28;20048;-76
2022/05/12 03:21:21;;;;;;;8.38;3.58;;;;;;;18.28;52.13;96237.38;5064131;28;20814;-77
2022/05/12 03:23:49;;;;;;;8.90;3.80;;;;;;;18.34;52.14;96233.94;5065826;28;20056;-77
2022/05/12 03:26:17;;;;;;;5.18;3.80;;;;;;;18.36;52.09;96241.84;5065171;28;20587;-77
2022/05/12 03:28:44;;;;;;;5.25;3.65;;;;;;;18.42;52.63;96246.66;5066915;28;20384;-77
2022/05/12 03:31:10;;;;;;;9.50;4.00;;;;;;;18.43;52.16;96253.78;5067968;28;20048;-77
2022/05/12 03:33:38;;;;;;;6.18;3.90;;;;;;;18.48;52.14;96247.94;5069232;28;20048;-77
2022/05/12 03:36:05;;;;;;;6.43;3.63;;;;;;;18.40;52.09;96249.00;5068255;28;20048;-76
2022/05/12 03:38:32;;;;;;;7.82;4.07;;;;;;;18.30;52.31;96254.34;5068895;28;20044;-76
2022/05/12 03:41:00;;;;;;;8.10;4.03;;;;;;;18.28;52.39;96249.22;5068753;28;20056;-77
2022/05/12 03:46:12;;;;;;;5.85;3.83;;;;;;;18.19;52.80;96259.69;5070649;28;20133;-78
2022/05/12 03:48:40;;;;;;;5.00;3.95;;;;;;;18.15;52.91;96256.88;5069697;28;20742;-77
2022/05/12 03:51:08;;;;;;;6.55;3.97;;;;;;;18.13;52.74;96266.69;5069248;28;20049;-77
2022/05/12 03:53:34;;;;;;;7.75;4.15;;;;;;;18.15;52.69;96273.41;5068857;28;20226;-77
2022/05/12 03:56:04;;;;;;;6.53;3.92;;;;;;;18.25;52.56;96275.53;5070199;28;20060;-77
2022/05/12 03:58:31;;;;;;;7.40;4.13;;;;;;;18.27;52.36;96266.91;5069919;28;20045;-78
2022/05/12 04:00:59;;;;;;;6.57;4.05;;;;;;;18.41;52.31;96282.88;5069767;28;20048;-77
2022/05/12 04:03:26;;;;;;;6.65;4.03;;;;;;;18.48;51.99;96272.75;5069500;28;20415;-77
2022/05/12 04:05:55;;;;;;;8.15;3.70;;;;;;;18.51;51.61;96279.47;5068848;28;20059;-77
2022/05/12 04:08:22;;;;;;;9.63;3.75;;;;;;;18.60;51.57;96280.00;5068233;28;20048;-77
2022/05/12 04:10:49;;;;;;;8.25;3.88;;;;;;;18.65;52.24;96281.66;5067101;28;20049;-77
2022/05/12 04:13:17;;;;;;;6.82;3.17;;;;;;;18.73;52.08;96288.88;5065520;28;20055;-78
2022/05/12 04:15:44;;;;;;;7.80;3.90;;;;;;;18.78;53.02;96288.56;5067104;28;20059;-77
2022/05/12 04:18:11;;;;;;;4.85;3.78;;;;;;;18.78;53.17;96296.84;5067172;28;20052;-77
2022/05/12 04:20:38;;;;;;;5.70;3.90;;;;;;;18.82;53.76;96294.94;5067477;28;20057;-78
2022/05/12 04:23:05;;;;;;;7.63;3.70;;;;;;;18.77;51.70;96300.78;5068450;28;20055;-77
2022/05/12 04:25:32;;;;;;;6.75;3.30;;;;;;;18.84;52.03;96297.31;5072037;28;20052;-78
2022/05/12 04:27:59;;;;;;;6.93;3.58;;;;;;;18.87;51.87;96300.13;5078937;28;20051;-77
2022/05/12 04:30:27;;;;;;;5.65;3.35;;;;;;;18.88;51.69;96307.22;5074392;28;20053;-77
2022/05/12 04:32:55;;;;;;;5.22;3.30;;;;;;;18.91;51.57;96306.50;5069682;28;20045;-77
2022/05/12 04:35:24;;;;;;;7.10;3.60;;;;;;;18.94;51.67;96302.97;5069106;28;20056;-77
2022/05/12 04:37:53;;;;;;;9.60;3.70;;;;;;;18.98;50.87;96312.09;5068295;28;20037;-77
2022/05/12 04:40:22;;;;;;;8.10;3.60;;;;;;;18.94;50.36;96311.25;5068387;28;20053;-77
2022/05/12 04:42:50;;;;;;;9.13;3.60;;;;;;;19.01;50.66;96318.84;5065992;28;20051;-76
2022/05/12 04:45:18;;;;;;;8.90;3.35;;;;;;;19.03;50.73;96320.06;5047847;28;20045;-77
2022/05/12 04:47:47;;;;;;;10.90;3.70;;;;;;;18.98;51.63;96320.38;5048051;28;20075;-77
2022/05/12 04:50:17;;;;;;;6.30;3.78;;;;;;;19.03;50.87;96333.84;5050041;28;20048;-78
2022/05/12 04:52:44;;;;;;;4.43;2.97;;;;;;;19.02;50.97;96328.72;5052505;28;20528;-76
2022/05/12 04:55:11;;;;;;;4.90;3.40;;;;;;;19.06;51.90;96331.53;5050418;28;20049;-77
2022/05/12 04:57:38;;;;;;;4.93;3.25;;;;;;;19.09;51.50;96339.06;5052040;28;20037;-78
2022/05/12 05:00:07;;;;;;;6.45;3.00;;;;;;;19.20;50.46;96339.97;5049964;28;20044;-77
2022/05/12 05:02:34;;;;;;;10.18;3.20;;;;;;;19.26;50.88;96346.75;5047636;28;20051;-77
2022/05/12 05:05:04;;;;;;;8.23;3.67;;;;;;;19.34;51.41;96351.22;5046577;28;20049;-77
2022/05/12 05:07:31;;;;;;;8.18;3.08;;;;;;;19.40;51.07;96355.25;5046768;28;20503;-77
2022/05/12 05:09:57;;;;;;;4.95;3.13;;;;;;;19.48;51.38;96356.94;5046782;28;20049;-77
2022/05/12 05:12:25;;;;;;;8.43;3.30;;;;;;;19.51;51.22;96367.22;5047054;28;20047;-77
2022/05/12 05:14:52;;;;;;;9.35;2.90;;;;;;;19.58;51.50;96371.25;5065953;28;20098;-77
2022/05/12 05:17:18;;;;;;;7.75;3.40;;;;;;;19.63;51.61;96373.69;5065582;28;20044;-77
2022/05/12 05:19:45;;;;;;;19.40;3.60;;;;;;;19.68;50.65;96376.13;5066880;28;20044;-78
2022/05/12 05:22:13;;;;;;;8.38;3.08;;;;;;;19.72;50.91;96376.97;5066275;28;20052;-77
2022/05/12 05:24:39;;;;;;;6.72;3.15;;;;;;;19.73;50.04;96381.31;5067028;28;20056;-77
2022/05/12 05:27:07;;;;;;;8.07;2.88;;;;;;;19.76;50.84;96383.34;5066668;28;20049;-76
2022/05/12 05:29:34;;;;;;;5.90;2.65;;;;;;;19.80;51.20;96381.41;5065981;28;20045;-77
2022/05/12 05:32:00;;;;;;;6.20;2.92;;;;;;;19.83;50.16;96388.94;5065968;28;20573;-76
2022/05/12 05:34:27;;;;;;;4.53;2.92;;;;;;;19.89;50.13;96392.97;5065717;28;20048;-77
2022/05/12 05:36:53;;;;;;;5.45;2.70;;;;;;;19.91;49.05;96395.34;5067240;28;20063;-77
2022/05/12 05:39:22;;;;;;;4.15;2.42;;;;;;;19.90;50.01;96402.84;5065510;28;20048;-78
2022/05/12 05:41:48;;;;;;;8.43;2.65;;;;;;;19.99;50.25;96408.88;5066898;28;20055;-76
2022/05/12 05:44:15;;;;;;;5.45;2.80;;;;;;;19.99;48.85;96408.88;5051070;28;20514;-77
2022/05/12 05:46:41;;;;;;;7.65;2.90;;;;;;;20.00;49.26;96416.00;5047138;28;20051;-77
2022/05/12 05:49:08;;;;;;;5.85;2.70;;;;;;;20.03;49.45;96418.00;5045393;28;20041;-77
2022/05/12 05:54:31;;;;;;;6.20;2.60;;;;;;;20.04;50.21;96427.88;5021361;28;20052;-77
2022/05/12 05:56:58;;;;;;;11.57;2.88;;;;;;;20.06;49.35;96435.81;5046478;28;20079;-78
2022/05/12 05:59:24;;;;;;;7.38;3.08;;;;;;;20.10;48.99;96441.34;5045705;28;20049;-77
2022/05/12 06:01:51;;;;;;;4.80;2.58;;;;;;;20.16;49.23;96439.88;5045608;28;20044;-77
2022/05/12 06:04:18;;;;;;;6.38;2.88;;;;;;;20.21;49.70;96436.75;5045440;28;20045;-77
2022/05/12 06:06:45;;;;;;;12.13;2.90;;;;;;;20.26;49.61;96439.19;5045981;28;20103;-78
2022/05/12 06:09:12;;;;;;;5.07;2.60;;;;;;;20.29;48.24;96438.41;5045731;28;20056;-76
2022/05/12 06:11:41;;;;;;;11.00;2.88;;;;;;;20.34;48.81;96440.84;5045104;28;20103;-78
2022/05/12 06:14:08;;;;;;;5.72;2.78;;;;;;;20.38;48.95;96449.97;5057181;28;20561;-77
2022/05/12 06:16:37;;;;;;;7.13;2.63;;;;;;;20.49;49.11;96444.56;5065163;28;20059;-77
2022/05/12 06:19:04;;;;;;;6.07;2.80;;;;;;;20.57;48.72;96457.31;5064750;28;20190;-77
2022/05/12 06:21:30;;;;;;;4.88;2.53;;;;;;;20.63;49.55;96457.75;5065460;28;20055;-77
2022/05/12 06:23:57;;;;;;;6.63;2.70;;;;;;;20.64;48.95;96464.88;5064882;28;20507;-77
2022/05/12 06:26:24;;;;;;;9.57;2.75;;;;;;;20.74;48.46;96464.19;5065909;28;20090;-77
2022/05/12 06:28:55;;;;;;;7.15;2.40;;;;;;;20.82;48.22;96474.91;5066719;28;20052;-76
2022/05/12 06:31:29;;;;;;;9.80;2.83;;;;;;;20.77;47.76;96477.25;5071079;28;20060;-78
2022/05/12 06:33:57;;;;;;;6.97;2.85;;;;;;;20.81;48.77;96476.09;5063154;28;20048;-77
2022/05/12 06:36:24;;;;;;;7.70;2.67;;;;;;;20.86;48.21;96472.19;5047663;28;20053;-77
2022/05/12 06:38:51;;;;;;;5.57;2.72;;;;;;;20.95;48.37;96477.41;5047402;28;20055;-76
2022/05/12 06:41:18;;;;;;;6.47;3.20;;;;;;;21.00;48.18;96483.41;5045705;28;20048;-77
2022/05/12 06:43:45;;;;;;;10.18;2.80;;;;;;;21.04;46.91;96483.44;5054781;28;20051;-77
2022/05/12 06:46:15;;;;;;;9.98;3.60;;;;;;;20.92;47.05;96486.47;5065664;28;20098;-77
2022/05/12 06:48:42;;;;;;;6.75;2.92;;;;;;;20.88;47.62;96491.19;5065410;28;20048;-77
2022/05/12 06:51:11;;;;;;;6.53;2.53;;;;;;;20.89;47.55;96490.81;5064838;28;20057;-77
2022/05/12 06:53:37;;;;;;;4.68;2.95;;;;;;;20.91;47.10;96496.75;5066291;28;20040;-77
2022/05/12 06:56:05;;;;;;;11.07;3.30;;;;;;;20.94;47.36;96500.75;5064815;28;20058;-76
2022/05/12 06:58:31;;;;;;;6.65;2.60;;;;;;;20.99;48.92;96509.50;5046000;28;20059;-77
2022/05/12 07:01:00;;;;;;;8.68;2.80;;;;;;;21.05;47.34;96502.44;5045286;28;20516;-76
2022/05/12 07:03:28;;;;;;;6.65;2.40;;;;;;;21.06;48.07;96504.00;5044905;28;20488;-76
2022/05/12 07:05:55;;;;;;;9.55;2.65;;;;;;;21.12;47.48;96504.44;5048161;28;20068;-77
2022/05/12 07:08:21;;;;;;;5.95;2.72;;;;;;;21.21;46.69;96498.59;5047201;28;20494;-77
2022/05/12 07:10:49;;;;;;;7.45;2.90;;;;;;;21.09;47.05;96506.03;5049542;28;20052;-76
2022/05/12 07:13:19;;;;;;;4.85;2.55;;;;;;;21.07;47.28;96504.81;5053368;28;20044;-77
2022/05/12 07:15:47;;;;;;;6.47;2.60;;;;;;;21.01;47.45;96507.13;5070006;28;20106;-77
2022/05/12 07:18:14;;;;;;;8.65;3.10;;;;;;;21.05;48.63;96509.94;5068574;28;20910;-77
2022/05/12 07:28:55;;;;;;;6.13;2.72;;;;;;;21.30;47.65;96513.75;5070597;28;20079;-78
2022/05/12 07:31:22;;;;;;;5.45;2.85;;;;;;;21.27;48.81;96514.47;5068757;28;20511;-78
2022/05/12 07:33:50;;;;;;;4.82;2.75;;;;;;;21.44;49.48;96507.50;5073583;28;20075;-78
2022/05/12 07:36:20;;;;;;;4.72;2.50;;;;;;;21.72;46.57;96517.19;5078017;28;20108;-78
2022/05/12 07:38:47;;;;;;;8.02;2.80;;;;;;;21.89;48.24;96513.72;5080734;28;20418;-77
2022/05/12 07:41:16;;;;;;;8.52;3.20;;;;;;;21.96;46.37;96521.28;5053471;28;20499;-78
2022/05/12 07:43:44;;;;;;;9.63;2.83;;;;;;;21.96;48.67;96527.63;5048266;28;20044;-77
2022/05/12 07:46:13;;;;;;;6.05;2.60;;;;;;;22.09;45.09;96526.09;5046702;28;20049;-78
2022/05/12 07:48:41;;;;;;;4.00;2.88;;;;;;;22.21;48.87;96526.97;5046119;28;20063;-77
2022/05/12 07:51:11;;;;;;;7.22;2.65;;;;;;;22.51;46.51;96524.72;5048582;28;20052;-78
2022/05/12 07:53:39;;;;;;;7.20;3.22;;;;;;;23.39;45.34;96528.06;5048709;28;20063;-78
2022/05/12 07:56:07;;;;;;;7.07;2.40;;;;;;;23.93;41.06;96521.25;5048133;28;20065;-78
2022/05/12 07:58:35;;;;;;;6.68;2.60;;;;;;;24.47;39.76;96518.28;5048877;28;20063;-78
2022/05/12 08:01:02;;;;;;;7.22;2.90;;;;;;;25.00;39.22;96517.19;5050168;28;20060;-78
2022/05/12 08:03:30;;;;;;;5.85;2.58;;;;;;;25.23;38.73;96520.25;5050890;28;20049;-77
2022/05/12 08:05:59;;;;;;;8.13;2.70;;;;;;;25.16;37.22;96525.88;5050725;28;20083;-78
2022/05/12 08:08:26;;;;;;;6.15;2.60;;;;;;;24.59;38.25;96528.16;5050164;28;20060;-79
2022/05/12 08:10:56;;;;;;;7.95;2.92;;;;;;;24.67;38.19;96526.94;5048918;28;20049;-78
2022/05/12 08:13:23;;;;;;;6.57;2.50;;;;;;;24.76;37.85;96521.72;5056020;28;20068;-78
2022/05/12 08:15:51;;;;;;;11.23;3.28;;;;;;;24.66;38.88;96526.16;5068318;28;20052;-78
2022/05/12 08:18:21;;;;;;;14.90;3.83;;;;;;;24.96;43.74;96528.38;5068865;28;20048;-78
2022/05/12 08:20:48;;;;;;;10.75;3.05;;;;;;;25.39;38.81;96530.06;5069295;28;20044;-77
2022/05/12 08:23:15;;;;;;;7.72;2.92;;;;;;;25.52;37.93;96531.13;5069393;28;20624;-77
2022/05/12 08:25:43;;;;;;;6.35;2.30;;;;;;;25.54;37.11;96539.91;5069069;28;20064;-78
2022/05/12 08:28:15;;;;;;;7.93;2.95;;;;;;;25.42;35.97;96535.63;5069559;28;20048;-78
2022/05/12 08:30:42;;;;;;;6.80;2.60;;;;;;;25.24;38.73;96532.19;5070884;28;20336;-77
2022/05/12 08:33:09;;;;;;;8.13;2.75;;;;;;;25.40;39.61;96538.00;5076232;28;20044;-78
2022/05/12 08:35:36;;;;;;;6.22;2.60;;;;;;;25.51;37.57;96535.13;5080756;28;20108;-77
2022/05/12 08:38:02;;;;;;;6.50;2.60;;;;;;;25.43;39.18;96533.63;5075047;28;20053;-79
2022/05/12 08:40:36;;;;;;;7.10;2.65;;;;;;;25.59;37.71;96531.09;5072204;28;20041;-77
2022/05/12 08:43:14;;;;;;;6.95;2.95;;;;;;;25.64;36.90;96527.88;5067106;28;20512;-78
2022/05/12 08:45:42;;;;;;;7.25;3.03;;;;;;;25.22;36.60;96538.16;5051029;28;20515;-77
2022/05/12 08:48:12;;;;;;;7.45;2.97;;;;;;;25.24;37.94;96535.75;5050049;28;20045;-77
2022/05/12 08:50:40;;;;;;;10.90;3.20;;;;;;;25.12;37.73;96541.81;5050371;28;20061;-78
2022/05/12 08:53:13;;;;;;;6.65;2.72;;;;;;;25.13;38.57;96532.25;5051549;28;20141;-78
2022/05/12 08:55:44;;;;;;;6.97;2.47;;;;;;;24.90;38.79;96540.31;5056794;28;20055;-78
2022/05/12 08:58:19;;;;;;;6.78;2.45;;;;;;;24.85;40.97;96543.53;5058261;28;20055;-77
2022/05/12 09:01:00;;;;;;;13.20;2.88;;;;;;;25.07;41.61;96539.47;5070800;28;20088;-77
2022/05/12 09:03:40;;;;;;;11.25;2.97;;;;;;;25.20;42.15;96543.34;5070893;28;20044;-78
2022/05/12 09:06:12;;;;;;;5.65;2.63;;;;;;;25.52;37.79;96547.88;5071011;28;20541;-78
2022/05/12 09:08:47;;;;;;;9.25;3.50;;;;;;;25.47;36.96;96546.31;5069806;28;20060;-78
2022/05/12 09:11:25;;;;;;;5.75;2.58;;;;;;;25.47;39.18;96539.94;5071359;28;20072;-77
2022/05/12 09:13:54;;;;;;;6.97;2.75;;;;;;;25.32;39.20;96541.25;5070293;28;20052;-77
2022/05/12 09:16:26;;;;;;;8.50;2.80;;;;;;;25.28;38.27;96540.50;5069037;28;20140;-77
2022/05/12 09:18:54;;;;;;;10.00;2.88;;;;;;;25.43;37.58;96534.41;5069364;28;20053;-77
2022/05/12 09:21:26;;;;;;;8.68;2.65;;;;;;;25.66;37.87;96536.59;5069860;28;20075;-78
2022/05/12 09:23:54;;;;;;;7.97;2.97;;;;;;;25.67;41.00;96542.97;5069363;28;20083;-78
2022/05/12 09:26:41;;;;;;;4.90;3.20;;;;;;;25.90;38.59;96542.38;5067620;28;20147;-78
2022/05/12 09:29:18;;;;;;;8.35;2.60;;;;;;;26.02;36.00;96547.44;5071472;28;20139;-78
2022/05/12 09:31:49;;;;;;;10.70;3.30;;;;;;;26.03;39.73;96540.66;5070369;28;20080;-77
2022/05/12 09:34:21;;;;;;;11.63;2.50;;;;;;;26.14;36.59;96544.09;5071406;28;20059;-78
2022/05/12 09:36:52;;;;;;;9.65;2.80;;;;;;;26.07;38.35;96547.00;5071746;28;20052;-78
2022/05/12 09:39:36;;;;;;;5.30;2.75;;;;;;;26.25;36.13;96538.41;5070672;28;20049;-77
2022/05/12 09:42:04;;;;;;;6.57;2.90;;;;;;;26.42;40.43;96543.03;5070148;28;20515;-78
2022/05/12 09:44:33;;;;;;;7.50;2.90;;;;;;;26.52;36.91;96546.91;5051933;28;20055;-77
2022/05/12 09:47:03;;;;;;;6.28;2.80;;;;;;;26.32;36.82;96548.72;5049019;28;20049;-78
2022/05/12 09:49:33;;;;;;;6.10;2.60;;;;;;;26.54;38.02;96556.44;5047855;28;20052;-77
2022/05/12 09:52:26;;;;;;;4.95;2.75;;;;;;;26.76;37.26;96551.34;5048325;28;20052;-78
2022/05/12 09:55:12;;;;;;;5.60;2.90;;;;;;;26.75;35.54;96541.41;5047670;28;20135;-79
2022/05/12 09:57:47;;;;;;;6.00;3.00;;;;;;;26.64;37.72;96549.13;5048246;28;20049;-77
2022/05/12 10:00:35;;;;;;;5.78;3.00;;;;;;;26.21;36.46;96538.47;5049239;28;20544;-77
2022/05/12 10:08:46;;;;;;;5.65;3.40;;;;;;;26.20;39.95;96536.84;5048612;28;20593;-77
2022/05/12 10:11:17;;;;;;;11.35;3.15;;;;;;;26.29;36.96;96522.41;5047401;28;20059;-77
2022/05/12 10:13:48;;;;;;;7.10;3.13;;;;;;;26.36;37.48;96529.91;5049264;28;20052;-77
2022/05/12 10:16:19;;;;;;;7.07;3.30;;;;;;;26.46;35.89;96535.38;5046169;28;20499;-77
2022/05/12 10:18:51;;;;;;;6.53;3.00;;;;;;;26.65;40.17;96524.78;5047768;28;20800;-77
2022/05/12 10:21:24;;;;;;;8.15;3.17;;;;;;;26.78;36.65;96532.19;5049939;28;20048;-78
2022/05/12 10:24:06;;;;;;;6.47;3.50;;;;;;;26.88;40.65;96518.47;5053078;28;20055;-78
2022/05/12 10:26:43;;;;;;;6.53;2.95;;;;;;;26.90;37.48;96525.25;5053600;28;20037;-77
2022/05/12 10:29:22;;;;;;;5.03;3.33;;;;;;;26.92;36.86;96524.81;5050235;28;20044;-77
2022/05/12 10:31:58;;;;;;;8.40;3.33;;;;;;;26.89;38.40;96520.06;5051380;28;20047;-78
2022/05/12 10:34:46;;;;;;;5.88;3.10;;;;;;;26.47;36.14;96527.81;5049259;28;20053;-77
2022/05/12 10:37:27;;;;;;;7.18;3.33;;;;;;;26.12;38.78;96529.78;5055507;28;20106;-79
2022/05/12 10:40:02;;;;;;;6.40;3.40;;;;;;;26.17;40.33;96526.53;5060148;28;20055;-78
2022/05/12 10:42:38;;;;;;;11.35;3.88;;;;;;;26.27;38.82;96525.63;5061753;28;20614;-77
2022/05/12 10:45:42;;;;;;;11.20;3.70;;;;;;;26.13;38.09;96530.56;5074993;28;20052;-77
2022/05/12 10:48:23;;;;;;;7.95;3.42;;;;;;;25.93;40.39;96527.59;5076126;28;20055;-77
2022/05/12 10:50:58;;;;;;;7.13;3.67;;;;;;;25.92;37.37;96523.22;5075650;28;20067;-77
2022/05/12 10:53:37;;;;;;;8.60;3.75;;;;;;;25.90;37.84;96522.88;5061069;28;20052;-77
2022/05/12 10:56:17;;;;;;;8.15;3.55;;;;;;;26.10;37.43;96503.50;5079281;28;20052;-78
2022/05/12 10:58:54;;;;;;;6.32;3.80;;;;;;;26.29;37.61;96514.03;5074656;28;20667;-78
2022/05/12 11:01:29;;;;;;;6.28;3.47;;;;;;;26.22;38.15;96520.50;5074793;28;20048;-78
2022/05/12 11:04:03;;;;;;;7.15;3.63;;;;;;;26.22;38.48;96512.13;5074729;28;20044;-77
2022/05/12 11:06:37;;;;;;;6.05;3.38;;;;;;;26.21;36.78;96509.75;5075126;28;20044;-81
2022/05/12 11:09:13;;;;;;;6.55;3.60;;;;;;;26.02;37.09;96514.75;5076514;28;20055;-77
2022/05/12 11:11:42;;;;;;;5.38;3.30;;;;;;;26.20;38.72;96506.16;5077566;28;20049;-77
2022/05/12 11:14:16;;;;;;;3.95;3.22;;;;;;;26.36;38.59;96502.78;5062177;28;20467;-77
2022/05/12 11:16:51;;;;;;;12.77;3.30;;;;;;;26.25;39.50;96505.69;5066174;28;20584;-77
2022/05/12 11:19:21;;;;;;;12.82;3.83;;;;;;;26.41;36.90;96495.94;5073315;28;20080;-77
2022/05/12 11:22:03;;;;;;;8.55;3.45;;;;;;;26.45;39.04;96496.72;5075175;28;20049;-78
2022/05/12 11:24:41;;;;;;;7.68;3.60;;;;;;;26.20;40.04;96497.78;5074024;28;20048;-77
2022/05/12 11:27:44;;;;;;;6.97;3.10;;;;;;;26.33;39.00;96505.63;5071891;28;20519;-77
2022/05/12 11:30:23;;;;;;;;;;;;;;;26.35;36.86;96492.03;5072313;28;20062;-77
2022/05/12 11:32:57;;;;;;;7.05;3.60;;;;;;;26.28;40.61;96496.50;5070567;28;20014;-77
2022/05/12 11:35:29;;;;;;;12.38;3.63;;;;;;;26.08;40.68;96489.16;5080068;28;20542;-76
2022/05/12 11:38:00;;;;;;;8.43;3.28;;;;;;;26.20;41.36;96492.19;5073368;28;20396;-76
2022/05/12 11:40:57;;;;;;;5.32;3.40;;;;;;;26.04;38.95;96492.00;5074641;28;20475;-77
2022/05/12 11:46:53;;;;;;;8.10;4.05;;;;;;;25.71;38.85;96488.75;5071826;28;20055;-78
2022/05/12 11:49:50;;;;;;;10.02;3.38;;;;;;;25.84;39.75;96485.44;5072237;28;20118;-78
2022/05/12 11:52:34;;;;;;;14.40;4.35;;;;;;;26.00;40.03;96480.09;5073916;28;20049;-76
2022/05/12 11:55:06;;;;;;;8.50;3.30;;;;;;;26.25;40.31;96477.00;5074724;28;20044;-77
2022/05/12 11:57:38;;;;;;;7.25;3.30;;;;;;;26.43;38.42;96487.97;5073759;28;20047;-77
2022/05/12 12:00:08;;;;;;;10.45;3.65;;;;;;;26.49;39.48;96467.53;5073428;28;20095;-76
2022/05/12 12:02:45;;;;;;;6.53;3.17;;;;;;;26.52;40.68;96468.72;5072943;28;20197;-78
2022/05/12 12:05:36;;;;;;;6.57;3.47;;;;;;;26.50;37.34;96469.13;5071875;28;20056;-77
2022/05/12 12:08:10;;;;;;;10.80;3.55;;;;;;;26.52;41.00;96463.13;5069130;28;20045;-77